sensor_id;sensor_type;location;lat;lon;timestamp;P1;durP1;ratioP1;P2;durP2;ratioP2
50417;SDS011;36346;48.280;14.292;2022-08-19T00:02:16;3.65;;;3.65;;
50417;SDS011;36346;48.280;14.292;2022-08-19T00:04:43;3.89;;;3.88;;
50417;SDS011;36346;48.280;14.292;2022-08-19T00:07:14;3.71;;;3.71;;
50417;SDS011;36346;48.280;14.292;2022-08-19T00:09:41;3.68;;;3.68;;
50417;SDS011;36346;48.280;14.292;2022-08-19T00:12:09;3.29;;;3.29;;
50417;SDS011;36346;48.280;14.292;2022-08-19T00:14:37;3.43;;;3.43;;
50417;SDS011;36346;48.280;14.292;2022-08-19T00:17:05;3.36;;;3.36;;
50417;SDS011;36346;48.280;14.292;2022-08-19T00:19:34;3.14;;;3.14;;
50417;SDS011;36346;48.280;14.292;2022-08-19T00:22:02;3.36;;;3.36;;
50417;SDS011;36346;48.280;14.292;2022-08-19T00:24:31;3.11;;;3.10;;
50417;SDS011;36346;48.280;14.292;2022-08-19T00:26:59;3.56;;;3.55;;
50417;SDS011;36346;48.280;14.292;2022-08-19T00:29:49;3.17;;;3.15;;
50417;SDS011;36346;48.280;14.292;2022-08-19T00:32:19;3.70;;;3.68;;
50417;SDS011;36346;48.280;14.292;2022-08-19T00:34:47;3.38;;;3.38;;
50417;SDS011;36346;48.280;14.292;2022-08-19T00:37:15;3.42;;;3.42;;
50417;SDS011;36346;48.280;14.292;2022-08-19T00:39:42;3.39;;;3.39;;
50417;SDS011;36346;48.280;14.292;2022-08-19T00:42:10;3.84;;;3.84;;
50417;SDS011;36346;48.280;14.292;2022-08-19T00:44:42;3.74;;;3.74;;
50417;SDS011;36346;48.280;14.292;2022-08-19T00:47:10;3.77;;;3.76;;
50417;SDS011;36346;48.280;14.292;2022-08-19T00:49:45;3.66;;;3.62;;
50417;SDS011;36346;48.280;14.292;2022-08-19T00:52:29;3.08;;;3.07;;
50417;SDS011;36346;48.280;14.292;2022-08-19T00:54:59;3.38;;;3.38;;
50417;SDS011;36346;48.280;14.292;2022-08-19T00:57:35;3.02;;;3.01;;
50417;SDS011;36346;48.280;14.292;2022-08-19T01:00:08;3.07;;;3.05;;
50417;SDS011;36346;48.280;14.292;2022-08-19T01:02:38;3.34;;;3.33;;
50417;SDS011;36346;48.280;14.292;2022-08-19T01:05:08;3.24;;;3.20;;
50417;SDS011;36346;48.280;14.292;2022-08-19T01:07:38;3.62;;;3.58;;
50417;SDS011;36346;48.280;14.292;2022-08-19T01:10:10;3.14;;;3.14;;
50417;SDS011;36346;48.280;14.292;2022-08-19T01:12:39;2.87;;;2.87;;
50417;SDS011;36346;48.280;14.292;2022-08-19T01:15:08;3.11;;;3.11;;
50417;SDS011;36346;48.280;14.292;2022-08-19T01:17:38;3.30;;;3.30;;
50417;SDS011;36346;48.280;14.292;2022-08-19T01:20:10;3.23;;;3.23;;
50417;SDS011;36346;48.280;14.292;2022-08-19T01:22:40;3.24;;;3.24;;
50417;SDS011;36346;48.280;14.292;2022-08-19T01:25:12;3.26;;;3.24;;
50417;SDS011;36346;48.280;14.292;2022-08-19T01:27:42;3.32;;;3.30;;
50417;SDS011;36346;48.280;14.292;2022-08-19T01:30:13;3.00;;;3.00;;
50417;SDS011;36346;48.280;14.292;2022-08-19T01:32:42;2.92;;;2.92;;
50417;SDS011;36346;48.280;14.292;2022-08-19T01:35:11;3.16;;;3.12;;
50417;SDS011;36346;48.280;14.292;2022-08-19T01:37:47;3.53;;;3.49;;
50417;SDS011;36346;48.280;14.292;2022-08-19T01:40:15;3.21;;;3.18;;
50417;SDS011;36346;48.280;14.292;2022-08-19T01:42:43;3.25;;;3.20;;
50417;SDS011;36346;48.280;14.292;2022-08-19T01:45:11;3.07;;;3.03;;
50417;SDS011;36346;48.280;14.292;2022-08-19T01:47:39;3.14;;;3.14;;
50417;SDS011;36346;48.280;14.292;2022-08-19T01:50:08;3.37;;;3.36;;
50417;SDS011;36346;48.280;14.292;2022-08-19T01:52:37;3.38;;;3.38;;
50417;SDS011;36346;48.280;14.292;2022-08-19T01:55:06;3.21;;;3.21;;
50417;SDS011;36346;48.280;14.292;2022-08-19T01:57:35;3.09;;;3.09;;
50417;SDS011;36346;48.280;14.292;2022-08-19T02:00:05;3.15;;;3.12;;
50417;SDS011;36346;48.280;14.292;2022-08-19T02:02:37;3.05;;;3.05;;
50417;SDS011;36346;48.280;14.292;2022-08-19T02:05:05;3.01;;;3.00;;
50417;SDS011;36346;48.280;14.292;2022-08-19T02:07:38;3.53;;;3.53;;
50417;SDS011;36346;48.280;14.292;2022-08-19T02:10:12;3.33;;;3.32;;
50417;SDS011;36346;48.280;14.292;2022-08-19T02:12:43;3.26;;;3.25;;
50417;SDS011;36346;48.280;14.292;2022-08-19T02:15:10;3.45;;;3.44;;
50417;SDS011;36346;48.280;14.292;2022-08-19T02:17:38;3.28;;;3.28;;
50417;SDS011;36346;48.280;14.292;2022-08-19T02:20:07;3.45;;;3.45;;
50417;SDS011;36346;48.280;14.292;2022-08-19T02:22:35;3.18;;;3.18;;
50417;SDS011;36346;48.280;14.292;2022-08-19T02:25:03;3.60;;;3.59;;
50417;SDS011;36346;48.280;14.292;2022-08-19T02:27:32;2.99;;;2.98;;
50417;SDS011;36346;48.280;14.292;2022-08-19T02:30:01;3.29;;;3.27;;
50417;SDS011;36346;48.280;14.292;2022-08-19T02:32:31;3.23;;;3.22;;
50417;SDS011;36346;48.280;14.292;2022-08-19T02:35:00;3.53;;;3.52;;
50417;SDS011;36346;48.280;14.292;2022-08-19T02:37:38;3.41;;;3.40;;
50417;SDS011;36346;48.280;14.292;2022-08-19T02:40:25;3.39;;;3.37;;
50417;SDS011;36346;48.280;14.292;2022-08-19T02:42:52;3.30;;;3.27;;
50417;SDS011;36346;48.280;14.292;2022-08-19T02:45:20;3.15;;;3.14;;
50417;SDS011;36346;48.280;14.292;2022-08-19T02:47:48;3.41;;;3.41;;
50417;SDS011;36346;48.280;14.292;2022-08-19T02:50:16;3.59;;;3.59;;
50417;SDS011;36346;48.280;14.292;2022-08-19T02:52:44;3.23;;;3.23;;
50417;SDS011;36346;48.280;14.292;2022-08-19T02:55:12;3.40;;;3.40;;
50417;SDS011;36346;48.280;14.292;2022-08-19T02:57:40;3.58;;;3.58;;
50417;SDS011;36346;48.280;14.292;2022-08-19T03:00:09;3.75;;;3.75;;
50417;SDS011;36346;48.280;14.292;2022-08-19T03:02:40;3.87;;;3.87;;
50417;SDS011;36346;48.280;14.292;2022-08-19T03:05:08;3.56;;;3.56;;
50417;SDS011;36346;48.280;14.292;2022-08-19T03:07:37;3.72;;;3.71;;
50417;SDS011;36346;48.280;14.292;2022-08-19T03:10:05;3.14;;;3.14;;
50417;SDS011;36346;48.280;14.292;2022-08-19T03:12:35;3.55;;;3.55;;
50417;SDS011;36346;48.280;14.292;2022-08-19T03:15:06;3.43;;;3.43;;
50417;SDS011;36346;48.280;14.292;2022-08-19T03:17:35;3.46;;;3.46;;
50417;SDS011;36346;48.280;14.292;2022-08-19T03:20:03;3.57;;;3.57;;
50417;SDS011;36346;48.280;14.292;2022-08-19T03:22:31;3.89;;;3.84;;
50417;SDS011;36346;48.280;14.292;2022-08-19T03:24:58;3.73;;;3.71;;
50417;SDS011;36346;48.280;14.292;2022-08-19T03:27:26;3.47;;;3.45;;
50417;SDS011;36346;48.280;14.292;2022-08-19T03:30:01;4.14;;;4.13;;
50417;SDS011;36346;48.280;14.292;2022-08-19T03:32:32;3.77;;;3.77;;
50417;SDS011;36346;48.280;14.292;2022-08-19T03:35:00;3.66;;;3.65;;
50417;SDS011;36346;48.280;14.292;2022-08-19T03:37:27;3.72;;;3.72;;
50417;SDS011;36346;48.280;14.292;2022-08-19T03:39:55;3.89;;;3.88;;
50417;SDS011;36346;48.280;14.292;2022-08-19T03:42:23;4.10;;;4.07;;
50417;SDS011;36346;48.280;14.292;2022-08-19T03:45:12;3.93;;;3.93;;
50417;SDS011;36346;48.280;14.292;2022-08-19T03:47:39;4.02;;;4.02;;
50417;SDS011;36346;48.280;14.292;2022-08-19T03:50:07;3.54;;;3.54;;
50417;SDS011;36346;48.280;14.292;2022-08-19T03:52:36;3.86;;;3.83;;
50417;SDS011;36346;48.280;14.292;2022-08-19T03:55:04;4.08;;;4.07;;
50417;SDS011;36346;48.280;14.292;2022-08-19T03:57:32;3.82;;;3.82;;
50417;SDS011;36346;48.280;14.292;2022-08-19T04:00:01;3.88;;;3.88;;
50417;SDS011;36346;48.280;14.292;2022-08-19T04:02:40;3.85;;;3.81;;
50417;SDS011;36346;48.280;14.292;2022-08-19T04:05:25;3.96;;;3.94;;
50417;SDS011;36346;48.280;14.292;2022-08-19T04:07:54;4.56;;;4.55;;
50417;SDS011;36346;48.280;14.292;2022-08-19T04:10:27;4.80;;;4.78;;
50417;SDS011;36346;48.280;14.292;2022-08-19T04:12:55;4.76;;;4.74;;
50417;SDS011;36346;48.280;14.292;2022-08-19T04:15:23;4.64;;;4.63;;
50417;SDS011;36346;48.280;14.292;2022-08-19T04:17:50;4.03;;;4.03;;
50417;SDS011;36346;48.280;14.292;2022-08-19T04:20:18;4.03;;;4.03;;
50417;SDS011;36346;48.280;14.292;2022-08-19T04:22:45;4.28;;;4.27;;
50417;SDS011;36346;48.280;14.292;2022-08-19T04:25:13;3.58;;;3.57;;
50417;SDS011;36346;48.280;14.292;2022-08-19T04:27:41;4.15;;;4.15;;
50417;SDS011;36346;48.280;14.292;2022-08-19T04:30:13;4.11;;;4.11;;
50417;SDS011;36346;48.280;14.292;2022-08-19T04:32:41;4.84;;;4.84;;
50417;SDS011;36346;48.280;14.292;2022-08-19T04:35:10;5.02;;;5.02;;
50417;SDS011;36346;48.280;14.292;2022-08-19T04:37:45;5.37;;;5.37;;
50417;SDS011;36346;48.280;14.292;2022-08-19T04:40:13;5.34;;;5.34;;
50417;SDS011;36346;48.280;14.292;2022-08-19T04:42:59;6.10;;;6.10;;
50417;SDS011;36346;48.280;14.292;2022-08-19T04:45:28;6.67;;;6.67;;
50417;SDS011;36346;48.280;14.292;2022-08-19T04:48:06;7.96;;;7.96;;
50417;SDS011;36346;48.280;14.292;2022-08-19T04:50:54;7.72;;;7.72;;
50417;SDS011;36346;48.280;14.292;2022-08-19T04:53:25;8.71;;;8.71;;
50417;SDS011;36346;48.280;14.292;2022-08-19T04:55:57;8.43;;;8.43;;
50417;SDS011;36346;48.280;14.292;2022-08-19T04:58:26;8.43;;;8.43;;
50417;SDS011;36346;48.280;14.292;2022-08-19T05:00:54;9.12;;;9.12;;
50417;SDS011;36346;48.280;14.292;2022-08-19T05:03:22;7.75;;;7.75;;
50417;SDS011;36346;48.280;14.292;2022-08-19T05:05:57;7.91;;;7.91;;
50417;SDS011;36346;48.280;14.292;2022-08-19T05:08:25;9.63;;;9.63;;
50417;SDS011;36346;48.280;14.292;2022-08-19T05:10:57;9.32;;;9.32;;
50417;SDS011;36346;48.280;14.292;2022-08-19T05:13:25;9.35;;;9.35;;
50417;SDS011;36346;48.280;14.292;2022-08-19T05:15:55;9.06;;;9.06;;
50417;SDS011;36346;48.280;14.292;2022-08-19T05:18:23;10.88;;;10.87;;
50417;SDS011;36346;48.280;14.292;2022-08-19T05:21:11;12.99;;;12.99;;
50417;SDS011;36346;48.280;14.292;2022-08-19T05:23:58;11.78;;;11.78;;
50417;SDS011;36346;48.280;14.292;2022-08-19T05:26:25;12.02;;;12.02;;
50417;SDS011;36346;48.280;14.292;2022-08-19T05:28:53;12.51;;;12.51;;
50417;SDS011;36346;48.280;14.292;2022-08-19T05:31:21;12.79;;;12.79;;
50417;SDS011;36346;48.280;14.292;2022-08-19T05:33:49;12.75;;;12.75;;
50417;SDS011;36346;48.280;14.292;2022-08-19T05:36:17;12.77;;;12.77;;
50417;SDS011;36346;48.280;14.292;2022-08-19T05:38:47;12.70;;;12.70;;
50417;SDS011;36346;48.280;14.292;2022-08-19T05:41:15;12.74;;;12.74;;
50417;SDS011;36346;48.280;14.292;2022-08-19T05:43:44;12.28;;;12.28;;
50417;SDS011;36346;48.280;14.292;2022-08-19T05:46:18;13.00;;;13.00;;
50417;SDS011;36346;48.280;14.292;2022-08-19T05:48:54;12.62;;;12.62;;
50417;SDS011;36346;48.280;14.292;2022-08-19T05:51:24;12.55;;;12.55;;
50417;SDS011;36346;48.280;14.292;2022-08-19T05:53:55;12.72;;;12.72;;
50417;SDS011;36346;48.280;14.292;2022-08-19T05:56:23;13.84;;;13.84;;
50417;SDS011;36346;48.280;14.292;2022-08-19T05:58:51;13.60;;;13.60;;
50417;SDS011;36346;48.280;14.292;2022-08-19T06:01:19;14.48;;;14.48;;
50417;SDS011;36346;48.280;14.292;2022-08-19T06:03:47;14.56;;;14.56;;
50417;SDS011;36346;48.280;14.292;2022-08-19T06:06:16;14.72;;;14.70;;
50417;SDS011;36346;48.280;14.292;2022-08-19T06:08:44;14.65;;;14.64;;
50417;SDS011;36346;48.280;14.292;2022-08-19T06:13:46;14.60;;;14.60;;
50417;SDS011;36346;48.280;14.292;2022-08-19T06:16:26;15.54;;;15.54;;
50417;SDS011;36346;48.280;14.292;2022-08-19T06:18:55;15.64;;;15.64;;
50417;SDS011;36346;48.280;14.292;2022-08-19T06:21:25;15.98;;;15.98;;
50417;SDS011;36346;48.280;14.292;2022-08-19T06:23:54;15.78;;;15.78;;
50417;SDS011;36346;48.280;14.292;2022-08-19T06:26:25;14.99;;;14.99;;
50417;SDS011;36346;48.280;14.292;2022-08-19T06:28:53;14.84;;;14.84;;
50417;SDS011;36346;48.280;14.292;2022-08-19T06:31:25;14.90;;;14.90;;
50417;SDS011;36346;48.280;14.292;2022-08-19T06:33:54;13.65;;;13.65;;
50417;SDS011;36346;48.280;14.292;2022-08-19T06:36:24;13.36;;;13.36;;
50417;SDS011;36346;48.280;14.292;2022-08-19T06:38:57;13.21;;;13.21;;
50417;SDS011;36346;48.280;14.292;2022-08-19T06:41:26;13.47;;;13.47;;
50417;SDS011;36346;48.280;14.292;2022-08-19T06:43:55;12.19;;;12.19;;
50417;SDS011;36346;48.280;14.292;2022-08-19T06:46:24;11.15;;;11.15;;
50417;SDS011;36346;48.280;14.292;2022-08-19T06:48:51;11.18;;;11.18;;
50417;SDS011;36346;48.280;14.292;2022-08-19T06:51:21;11.37;;;11.33;;
50417;SDS011;36346;48.280;14.292;2022-08-19T06:53:51;11.63;;;11.62;;
50417;SDS011;36346;48.280;14.292;2022-08-19T06:56:24;12.30;;;12.30;;
50417;SDS011;36346;48.280;14.292;2022-08-19T06:58:58;12.50;;;12.50;;
50417;SDS011;36346;48.280;14.292;2022-08-19T07:01:26;13.13;;;13.12;;
50417;SDS011;36346;48.280;14.292;2022-08-19T07:03:53;13.22;;;13.21;;
50417;SDS011;36346;48.280;14.292;2022-08-19T07:06:21;13.98;;;13.98;;
50417;SDS011;36346;48.280;14.292;2022-08-19T07:09:09;13.76;;;13.76;;
50417;SDS011;36346;48.280;14.292;2022-08-19T07:11:38;13.99;;;13.99;;
50417;SDS011;36346;48.280;14.292;2022-08-19T07:14:06;13.96;;;13.92;;
50417;SDS011;36346;48.280;14.292;2022-08-19T07:16:47;13.81;;;13.81;;
50417;SDS011;36346;48.280;14.292;2022-08-19T07:19:16;14.68;;;14.68;;
50417;SDS011;36346;48.280;14.292;2022-08-19T07:21:49;13.74;;;13.74;;
50417;SDS011;36346;48.280;14.292;2022-08-19T07:24:22;14.84;;;14.84;;
50417;SDS011;36346;48.280;14.292;2022-08-19T07:26:57;15.40;;;15.40;;
50417;SDS011;36346;48.280;14.292;2022-08-19T07:29:31;14.68;;;14.68;;
50417;SDS011;36346;48.280;14.292;2022-08-19T07:32:02;14.86;;;14.86;;
50417;SDS011;36346;48.280;14.292;2022-08-19T07:34:31;14.72;;;14.72;;
50417;SDS011;36346;48.280;14.292;2022-08-19T07:37:01;15.01;;;15.01;;
50417;SDS011;36346;48.280;14.292;2022-08-19T07:39:32;15.46;;;15.46;;
50417;SDS011;36346;48.280;14.292;2022-08-19T07:42:01;15.73;;;15.73;;
50417;SDS011;36346;48.280;14.292;2022-08-19T07:44:31;15.39;;;15.38;;
50417;SDS011;36346;48.280;14.292;2022-08-19T07:46:59;14.65;;;14.64;;
50417;SDS011;36346;48.280;14.292;2022-08-19T07:49:27;15.22;;;15.21;;
50417;SDS011;36346;48.280;14.292;2022-08-19T07:51:57;17.47;;;17.47;;
50417;SDS011;36346;48.280;14.292;2022-08-19T07:54:26;16.97;;;16.97;;
50417;SDS011;36346;48.280;14.292;2022-08-19T07:56:54;19.14;;;19.14;;
50417;SDS011;36346;48.280;14.292;2022-08-19T07:59:24;20.63;;;20.59;;
50417;SDS011;36346;48.280;14.292;2022-08-19T08:02:17;21.80;;;21.66;;
50417;SDS011;36346;48.280;14.292;2022-08-19T08:05:10;22.87;;;22.87;;
50417;SDS011;36346;48.280;14.292;2022-08-19T08:08:09;21.87;;;21.85;;
50417;SDS011;36346;48.280;14.292;2022-08-19T08:11:03;21.02;;;21.02;;
50417;SDS011;36346;48.280;14.292;2022-08-19T08:13:56;23.37;;;23.28;;
50417;SDS011;36346;48.280;14.292;2022-08-19T08:16:56;22.29;;;22.29;;
50417;SDS011;36346;48.280;14.292;2022-08-19T08:20:09;22.15;;;22.13;;
50417;SDS011;36346;48.280;14.292;2022-08-19T08:23:02;22.01;;;22.01;;
50417;SDS011;36346;48.280;14.292;2022-08-19T08:25:56;21.04;;;21.04;;
50417;SDS011;36346;48.280;14.292;2022-08-19T08:28:50;21.78;;;21.78;;
50417;SDS011;36346;48.280;14.292;2022-08-19T08:31:19;23.68;;;23.56;;
50417;SDS011;36346;48.280;14.292;2022-08-19T08:33:47;22.28;;;22.26;;
50417;SDS011;36346;48.280;14.292;2022-08-19T08:36:16;24.06;;;24.04;;
50417;SDS011;36346;48.280;14.292;2022-08-19T08:38:44;22.31;;;22.19;;
50417;SDS011;36346;48.280;14.292;2022-08-19T08:43:58;22.53;;;22.49;;
50417;SDS011;36346;48.280;14.292;2022-08-19T08:46:30;22.33;;;22.31;;
50417;SDS011;36346;48.280;14.292;2022-08-19T08:51:43;20.60;;;20.59;;
50417;SDS011;36346;48.280;14.292;2022-08-19T08:54:27;21.58;;;21.57;;
50417;SDS011;36346;48.280;14.292;2022-08-19T08:57:02;22.31;;;22.29;;
50417;SDS011;36346;48.280;14.292;2022-08-19T08:59:33;23.92;;;23.91;;
50417;SDS011;36346;48.280;14.292;2022-08-19T09:02:04;24.50;;;24.49;;
50417;SDS011;36346;48.280;14.292;2022-08-19T09:04:33;25.53;;;25.50;;
50417;SDS011;36346;48.280;14.292;2022-08-19T09:09:45;24.15;;;24.15;;
50417;SDS011;36346;48.280;14.292;2022-08-19T09:12:19;24.09;;;24.09;;
50417;SDS011;36346;48.280;14.292;2022-08-19T09:14:57;24.95;;;24.95;;
50417;SDS011;36346;48.280;14.292;2022-08-19T09:17:29;25.36;;;25.35;;
50417;SDS011;36346;48.280;14.292;2022-08-19T09:20:04;23.99;;;23.88;;
50417;SDS011;36346;48.280;14.292;2022-08-19T09:22:36;23.45;;;23.45;;
50417;SDS011;36346;48.280;14.292;2022-08-19T09:25:06;23.89;;;23.78;;
50417;SDS011;36346;48.280;14.292;2022-08-19T09:27:35;22.87;;;22.87;;
50417;SDS011;36346;48.280;14.292;2022-08-19T09:30:12;22.78;;;22.76;;
50417;SDS011;36346;48.280;14.292;2022-08-19T09:32:42;23.22;;;23.22;;
50417;SDS011;36346;48.280;14.292;2022-08-19T09:35:11;23.82;;;23.80;;
50417;SDS011;36346;48.280;14.292;2022-08-19T09:37:40;23.69;;;23.69;;
50417;SDS011;36346;48.280;14.292;2022-08-19T09:40:09;23.11;;;23.11;;
50417;SDS011;36346;48.280;14.292;2022-08-19T09:42:38;24.30;;;24.30;;
50417;SDS011;36346;48.280;14.292;2022-08-19T09:45:20;24.92;;;24.90;;
50417;SDS011;36346;48.280;14.292;2022-08-19T09:47:50;24.68;;;24.68;;
50417;SDS011;36346;48.280;14.292;2022-08-19T09:50:21;24.17;;;24.16;;
50417;SDS011;36346;48.280;14.292;2022-08-19T09:52:50;23.56;;;23.56;;
50417;SDS011;36346;48.280;14.292;2022-08-19T09:55:24;25.71;;;25.70;;
50417;SDS011;36346;48.280;14.292;2022-08-19T09:57:59;24.30;;;24.28;;
50417;SDS011;36346;48.280;14.292;2022-08-19T10:00:27;23.09;;;23.07;;
50417;SDS011;36346;48.280;14.292;2022-08-19T10:02:55;21.18;;;21.18;;
50417;SDS011;36346;48.280;14.292;2022-08-19T10:05:23;21.37;;;21.37;;
50417;SDS011;36346;48.280;14.292;2022-08-19T10:08:09;26.72;;;26.72;;
50417;SDS011;36346;48.280;14.292;2022-08-19T10:10:40;25.76;;;25.76;;
50417;SDS011;36346;48.280;14.292;2022-08-19T10:13:14;25.70;;;25.70;;
50417;SDS011;36346;48.280;14.292;2022-08-19T10:15:42;24.80;;;24.80;;
50417;SDS011;36346;48.280;14.292;2022-08-19T10:18:14;23.67;;;23.67;;
50417;SDS011;36346;48.280;14.292;2022-08-19T10:20:46;23.70;;;23.70;;
50417;SDS011;36346;48.280;14.292;2022-08-19T10:23:19;23.04;;;23.04;;
50417;SDS011;36346;48.280;14.292;2022-08-19T10:25:48;26.75;;;26.74;;
50417;SDS011;36346;48.280;14.292;2022-08-19T10:28:16;23.77;;;23.77;;
50417;SDS011;36346;48.280;14.292;2022-08-19T10:30:46;22.25;;;22.25;;
50417;SDS011;36346;48.280;14.292;2022-08-19T10:33:14;20.23;;;20.23;;
50417;SDS011;36346;48.280;14.292;2022-08-19T10:36:03;19.65;;;19.65;;
50417;SDS011;36346;48.280;14.292;2022-08-19T10:38:32;22.21;;;22.21;;
50417;SDS011;36346;48.280;14.292;2022-08-19T10:41:17;22.75;;;22.75;;
50417;SDS011;36346;48.280;14.292;2022-08-19T10:43:45;23.50;;;23.50;;
50417;SDS011;36346;48.280;14.292;2022-08-19T10:46:14;25.67;;;25.67;;
50417;SDS011;36346;48.280;14.292;2022-08-19T10:48:43;22.72;;;22.72;;
50417;SDS011;36346;48.280;14.292;2022-08-19T10:51:12;20.94;;;20.94;;
50417;SDS011;36346;48.280;14.292;2022-08-19T10:53:58;22.24;;;22.24;;
50417;SDS011;36346;48.280;14.292;2022-08-19T10:56:27;23.01;;;23.01;;
50417;SDS011;36346;48.280;14.292;2022-08-19T10:59:14;21.21;;;21.21;;
50417;SDS011;36346;48.280;14.292;2022-08-19T11:01:43;24.49;;;24.49;;
50417;SDS011;36346;48.280;14.292;2022-08-19T11:04:12;22.35;;;22.35;;
50417;SDS011;36346;48.280;14.292;2022-08-19T11:06:41;23.02;;;23.02;;
50417;SDS011;36346;48.280;14.292;2022-08-19T11:09:10;23.72;;;23.72;;
50417;SDS011;36346;48.280;14.292;2022-08-19T11:11:39;24.43;;;24.43;;
50417;SDS011;36346;48.280;14.292;2022-08-19T11:14:09;22.59;;;22.59;;
50417;SDS011;36346;48.280;14.292;2022-08-19T11:16:37;23.90;;;23.90;;
50417;SDS011;36346;48.280;14.292;2022-08-19T11:19:07;24.31;;;24.31;;
50417;SDS011;36346;48.280;14.292;2022-08-19T11:21:37;25.38;;;25.38;;
50417;SDS011;36346;48.280;14.292;2022-08-19T11:24:07;26.08;;;26.08;;
50417;SDS011;36346;48.280;14.292;2022-08-19T11:26:37;23.20;;;23.20;;
50417;SDS011;36346;48.280;14.292;2022-08-19T11:29:05;22.29;;;22.29;;
50417;SDS011;36346;48.280;14.292;2022-08-19T11:31:34;20.91;;;20.91;;
50417;SDS011;36346;48.280;14.292;2022-08-19T11:34:04;19.34;;;19.34;;
50417;SDS011;36346;48.280;14.292;2022-08-19T11:36:33;18.34;;;18.34;;
50417;SDS011;36346;48.280;14.292;2022-08-19T11:39:04;18.22;;;18.22;;
50417;SDS011;36346;48.280;14.292;2022-08-19T11:41:34;16.59;;;16.59;;
50417;SDS011;36346;48.280;14.292;2022-08-19T11:44:02;16.00;;;16.00;;
50417;SDS011;36346;48.280;14.292;2022-08-19T11:46:30;16.98;;;16.98;;
50417;SDS011;36346;48.280;14.292;2022-08-19T11:48:59;26.97;;;26.97;;
50417;SDS011;36346;48.280;14.292;2022-08-19T11:51:28;24.01;;;24.01;;
50417;SDS011;36346;48.280;14.292;2022-08-19T11:53:57;18.62;;;18.62;;
50417;SDS011;36346;48.280;14.292;2022-08-19T11:56:26;16.90;;;16.90;;
50417;SDS011;36346;48.280;14.292;2022-08-19T11:58:55;16.75;;;16.75;;
50417;SDS011;36346;48.280;14.292;2022-08-19T12:01:26;17.55;;;17.55;;
50417;SDS011;36346;48.280;14.292;2022-08-19T12:03:54;17.68;;;17.68;;
50417;SDS011;36346;48.280;14.292;2022-08-19T12:06:31;17.84;;;17.84;;
50417;SDS011;36346;48.280;14.292;2022-08-19T12:09:03;19.80;;;19.80;;
50417;SDS011;36346;48.280;14.292;2022-08-19T12:11:32;19.88;;;19.88;;
50417;SDS011;36346;48.280;14.292;2022-08-19T12:14:01;19.72;;;19.72;;
50417;SDS011;36346;48.280;14.292;2022-08-19T12:16:31;18.98;;;18.98;;
50417;SDS011;36346;48.280;14.292;2022-08-19T12:19:00;19.14;;;19.14;;
50417;SDS011;36346;48.280;14.292;2022-08-19T12:21:32;20.81;;;20.81;;
50417;SDS011;36346;48.280;14.292;2022-08-19T12:24:01;20.19;;;20.19;;
50417;SDS011;36346;48.280;14.292;2022-08-19T12:26:30;20.36;;;20.35;;
50417;SDS011;36346;48.280;14.292;2022-08-19T12:28:59;20.47;;;20.47;;
50417;SDS011;36346;48.280;14.292;2022-08-19T12:31:27;21.93;;;21.93;;
50417;SDS011;36346;48.280;14.292;2022-08-19T12:33:55;20.51;;;20.51;;
50417;SDS011;36346;48.280;14.292;2022-08-19T12:36:23;19.37;;;19.37;;
50417;SDS011;36346;48.280;14.292;2022-08-19T12:38:52;19.04;;;19.04;;
50417;SDS011;36346;48.280;14.292;2022-08-19T12:41:20;19.92;;;19.92;;
50417;SDS011;36346;48.280;14.292;2022-08-19T12:43:49;20.42;;;20.42;;
50417;SDS011;36346;48.280;14.292;2022-08-19T12:46:18;19.42;;;19.42;;
50417;SDS011;36346;48.280;14.292;2022-08-19T12:48:51;18.47;;;18.47;;
50417;SDS011;36346;48.280;14.292;2022-08-19T12:51:22;18.17;;;18.17;;
50417;SDS011;36346;48.280;14.292;2022-08-19T12:53:50;18.63;;;18.63;;
50417;SDS011;36346;48.280;14.292;2022-08-19T12:56:17;18.47;;;18.47;;
50417;SDS011;36346;48.280;14.292;2022-08-19T12:58:49;17.61;;;17.61;;
50417;SDS011;36346;48.280;14.292;2022-08-19T13:01:19;16.87;;;16.87;;
50417;SDS011;36346;48.280;14.292;2022-08-19T13:03:50;17.05;;;17.05;;
50417;SDS011;36346;48.280;14.292;2022-08-19T13:06:20;17.67;;;17.67;;
50417;SDS011;36346;48.280;14.292;2022-08-19T13:08:48;17.66;;;17.66;;
50417;SDS011;36346;48.280;14.292;2022-08-19T13:11:17;16.81;;;16.81;;
50417;SDS011;36346;48.280;14.292;2022-08-19T13:13:46;17.55;;;17.55;;
50417;SDS011;36346;48.280;14.292;2022-08-19T13:16:14;17.10;;;17.10;;
50417;SDS011;36346;48.280;14.292;2022-08-19T13:18:43;17.23;;;17.23;;
50417;SDS011;36346;48.280;14.292;2022-08-19T13:21:12;15.88;;;15.88;;
50417;SDS011;36346;48.280;14.292;2022-08-19T13:23:41;16.71;;;16.71;;
50417;SDS011;36346;48.280;14.292;2022-08-19T13:26:10;17.58;;;17.58;;
50417;SDS011;36346;48.280;14.292;2022-08-19T13:28:39;16.38;;;16.38;;
50417;SDS011;36346;48.280;14.292;2022-08-19T13:31:27;15.86;;;15.86;;
50417;SDS011;36346;48.280;14.292;2022-08-19T13:34:15;16.97;;;16.97;;
50417;SDS011;36346;48.280;14.292;2022-08-19T13:36:44;17.02;;;17.02;;
50417;SDS011;36346;48.280;14.292;2022-08-19T13:39:12;17.13;;;17.13;;
50417;SDS011;36346;48.280;14.292;2022-08-19T13:41:43;15.79;;;15.79;;
50417;SDS011;36346;48.280;14.292;2022-08-19T13:44:15;16.65;;;16.65;;
50417;SDS011;36346;48.280;14.292;2022-08-19T13:46:46;17.30;;;17.30;;
50417;SDS011;36346;48.280;14.292;2022-08-19T13:49:20;15.98;;;15.98;;
50417;SDS011;36346;48.280;14.292;2022-08-19T13:51:50;14.26;;;14.26;;
50417;SDS011;36346;48.280;14.292;2022-08-19T13:54:18;17.73;;;17.73;;
50417;SDS011;36346;48.280;14.292;2022-08-19T13:56:47;17.17;;;17.17;;
50417;SDS011;36346;48.280;14.292;2022-08-19T13:59:16;18.89;;;18.89;;
50417;SDS011;36346;48.280;14.292;2022-08-19T14:01:45;17.98;;;17.98;;
50417;SDS011;36346;48.280;14.292;2022-08-19T14:04:14;14.85;;;14.85;;
50417;SDS011;36346;48.280;14.292;2022-08-19T14:06:42;13.59;;;13.59;;
50417;SDS011;36346;48.280;14.292;2022-08-19T14:09:10;15.20;;;15.20;;
50417;SDS011;36346;48.280;14.292;2022-08-19T14:11:39;15.51;;;15.51;;
50417;SDS011;36346;48.280;14.292;2022-08-19T14:14:07;14.94;;;14.94;;
50417;SDS011;36346;48.280;14.292;2022-08-19T14:16:42;14.45;;;14.45;;
50417;SDS011;36346;48.280;14.292;2022-08-19T14:19:10;14.13;;;14.13;;
50417;SDS011;36346;48.280;14.292;2022-08-19T14:21:40;13.93;;;13.93;;
50417;SDS011;36346;48.280;14.292;2022-08-19T14:24:09;12.76;;;12.76;;
50417;SDS011;36346;48.280;14.292;2022-08-19T14:26:38;14.70;;;14.70;;
50417;SDS011;36346;48.280;14.292;2022-08-19T14:29:06;15.73;;;15.73;;
50417;SDS011;36346;48.280;14.292;2022-08-19T14:31:35;15.12;;;15.12;;
50417;SDS011;36346;48.280;14.292;2022-08-19T14:34:03;13.56;;;13.56;;
50417;SDS011;36346;48.280;14.292;2022-08-19T14:36:31;14.41;;;14.41;;
50417;SDS011;36346;48.280;14.292;2022-08-19T14:39:05;12.73;;;12.73;;
50417;SDS011;36346;48.280;14.292;2022-08-19T14:41:34;12.79;;;12.79;;
50417;SDS011;36346;48.280;14.292;2022-08-19T14:44:04;11.78;;;11.78;;
50417;SDS011;36346;48.280;14.292;2022-08-19T14:46:34;11.99;;;11.99;;
50417;SDS011;36346;48.280;14.292;2022-08-19T14:49:04;13.39;;;13.39;;
50417;SDS011;36346;48.280;14.292;2022-08-19T14:51:36;13.51;;;13.51;;
50417;SDS011;36346;48.280;14.292;2022-08-19T14:54:04;12.97;;;12.97;;